sensor_id;sensor_type;location;lat;lon;timestamp;pressure;altitude;pressure_sealevel;temperature;humidity
9281;BME280;4679;47.966;7.958;2022-08-19T05:38:59;96894.88;;;17.97;91.76
9281;BME280;4679;47.966;7.958;2022-08-19T05:41:00;96890.81;;;17.99;92.03
9281;BME280;4679;47.966;7.958;2022-08-19T05:43:03;96888.94;;;18.00;92.04
9281;BME280;4679;47.966;7.958;2022-08-19T05:45:06;96892.41;;;18.00;91.96
9281;BME280;4679;47.966;7.958;2022-08-19T05:47:08;96892.41;;;18.00;91.91
9281;BME280;4679;47.966;7.958;2022-08-19T05:49:10;96890.81;;;17.99;92.11
9281;BME280;4679;47.966;7.958;2022-08-19T05:51:12;96892.59;;;18.04;91.61
9281;BME280;4679;47.966;7.958;2022-08-19T05:53:14;96898.19;;;18.07;91.75
9281;BME280;4679;47.966;7.958;2022-08-19T05:55:18;96902.97;;;18.10;91.66
9281;BME280;4679;47.966;7.958;2022-08-19T05:57:20;96906.75;;;18.09;92.09
9281;BME280;4679;47.966;7.958;2022-08-19T05:59:22;96906.75;;;18.09;91.75
9281;BME280;4679;47.966;7.958;2022-08-19T06:01:25;96914.78;;;18.09;91.98
9281;BME280;4679;47.966;7.958;2022-08-19T06:03:27;96913.91;;;18.14;91.93
9281;BME280;4679;47.966;7.958;2022-08-19T06:05:29;96909.94;;;18.11;91.90
9281;BME280;4679;47.966;7.958;2022-08-19T06:07:31;96908.03;;;18.12;91.68
9281;BME280;4679;47.966;7.958;2022-08-19T06:09:33;96906.34;;;18.16;91.58
9281;BME280;4679;47.966;7.958;2022-08-19T06:11:39;96918.38;;;18.18;91.88
9281;BME280;4679;47.966;7.958;2022-08-19T06:13:42;96910.53;;;18.22;91.88
9281;BME280;4679;47.966;7.958;2022-08-19T06:15:45;96924.66;;;18.27;91.86
9281;BME280;4679;47.966;7.958;2022-08-19T06:17:47;96916.03;;;18.31;91.38
9281;BME280;4679;47.966;7.958;2022-08-19T06:19:49;96930.53;;;18.30;91.52
9281;BME280;4679;47.966;7.958;2022-08-19T06:21:52;96934.03;;;18.30;91.62
9281;BME280;4679;47.966;7.958;2022-08-19T06:23:55;96931.22;;;18.35;91.77
9281;BME280;4679;47.966;7.958;2022-08-19T06:25:57;96928.84;;;18.34;91.81
9281;BME280;4679;47.966;7.958;2022-08-19T06:28:00;96932.03;;;18.36;91.98
9281;BME280;4679;47.966;7.958;2022-08-19T06:30:03;96931.63;;;18.28;91.34
9281;BME280;4679;47.966;7.958;2022-08-19T06:32:06;96939.69;;;18.28;91.65
9281;BME280;4679;47.966;7.958;2022-08-19T06:34:07;96937.69;;;18.34;91.76
9281;BME280;4679;47.966;7.958;2022-08-19T06:36:17;96932.81;;;18.36;91.75
9281;BME280;4679;47.966;7.958;2022-08-19T06:38:19;96935.22;;;18.38;91.77
9281;BME280;4679;47.966;7.958;2022-08-19T06:40:23;96943.19;;;18.29;91.68
9281;BME280;4679;47.966;7.958;2022-08-19T06:42:25;96935.31;;;18.33;91.73
9281;BME280;4679;47.966;7.958;2022-08-19T06:44:30;96935.72;;;18.40;91.44
9281;BME280;4679;47.966;7.958;2022-08-19T06:46:35;96930.84;;;18.42;91.45
9281;BME280;4679;47.966;7.958;2022-08-19T06:48:37;96936.00;;;18.38;91.71
9281;BME280;4679;47.966;7.958;2022-08-19T06:50:39;96933.22;;;18.43;91.57
9281;BME280;4679;47.966;7.958;2022-08-19T06:52:40;96939.28;;;18.49;91.80
9281;BME280;4679;47.966;7.958;2022-08-19T06:54:42;96933.81;;;18.54;91.29
9281;BME280;4679;47.966;7.958;2022-08-19T06:56:45;96934.31;;;18.56;91.38
9281;BME280;4679;47.966;7.958;2022-08-19T06:58:47;96927.59;;;18.58;91.37
9281;BME280;4679;47.966;7.958;2022-08-19T07:00:54;96926.09;;;18.66;91.47
9281;BME280;4679;47.966;7.958;2022-08-19T07:02:57;96929.75;;;18.70;91.29
9281;BME280;4679;47.966;7.958;2022-08-19T07:05:00;96927.56;;;18.72;91.45
9281;BME280;4679;47.966;7.958;2022-08-19T07:07:06;96921.91;;;18.74;91.21
9281;BME280;4679;47.966;7.958;2022-08-19T07:09:11;96928.66;;;18.71;91.32
9281;BME280;4679;47.966;7.958;2022-08-19T07:11:15;96933.66;;;18.78;91.34
9281;BME280;4679;47.966;7.958;2022-08-19T07:13:18;96931.44;;;18.80;91.08
9281;BME280;4679;47.966;7.958;2022-08-19T07:15:21;96937.81;;;18.84;91.17
9281;BME280;4679;47.966;7.958;2022-08-19T07:17:25;96933.25;;;18.84;91.32
9281;BME280;4679;47.966;7.958;2022-08-19T07:19:28;96943.41;;;18.87;91.18
9281;BME280;4679;47.966;7.958;2022-08-19T07:21:30;96947.38;;;18.90;91.07
9281;BME280;4679;47.966;7.958;2022-08-19T07:23:32;96951.06;;;18.94;90.89
9281;BME280;4679;47.966;7.958;2022-08-19T07:25:35;96944.25;;;18.96;90.98
9281;BME280;4679;47.966;7.958;2022-08-19T07:27:37;96944.75;;;18.98;90.85
9281;BME280;4679;47.966;7.958;2022-08-19T07:29:39;96947.59;;;18.93;90.92
9281;BME280;4679;47.966;7.958;2022-08-19T07:31:41;96943.31;;;18.92;90.96
9281;BME280;4679;47.966;7.958;2022-08-19T07:33:45;96948.53;;;18.97;91.14
9281;BME280;4679;47.966;7.958;2022-08-19T07:35:47;96947.44;;;18.98;91.07
9281;BME280;4679;47.966;7.958;2022-08-19T07:37:49;96949.53;;;19.02;91.17
9281;BME280;4679;47.966;7.958;2022-08-19T07:39:53;96950.84;;;19.04;90.86
9281;BME280;4679;47.966;7.958;2022-08-19T07:41:56;96951.03;;;19.08;91.05
9281;BME280;4679;47.966;7.958;2022-08-19T07:43:59;96949.16;;;19.08;90.99
9281;BME280;4679;47.966;7.958;2022-08-19T07:46:04;96956.41;;;19.08;91.07
9281;BME280;4679;47.966;7.958;2022-08-19T07:48:05;96958.00;;;19.09;91.03
9281;BME280;4679;47.966;7.958;2022-08-19T07:50:09;96951.50;;;19.10;90.95
9281;BME280;4679;47.966;7.958;2022-08-19T07:52:12;96956.41;;;19.08;91.05
9281;BME280;4679;47.966;7.958;2022-08-19T07:54:13;96959.28;;;19.11;90.88
9281;BME280;4679;47.966;7.958;2022-08-19T07:56:16;96958.88;;;19.18;90.90
9281;BME280;4679;47.966;7.958;2022-08-19T07:58:21;96962.25;;;19.23;90.79
9281;BME280;4679;47.966;7.958;2022-08-19T08:00:23;96962.44;;;19.27;90.90
9281;BME280;4679;47.966;7.958;2022-08-19T08:02:24;96963.72;;;19.29;90.79
9281;BME280;4679;47.966;7.958;2022-08-19T08:04:27;96968.31;;;19.29;91.12
9281;BME280;4679;47.966;7.958;2022-08-19T08:06:47;96965.03;;;19.32;91.08
9281;BME280;4679;47.966;7.958;2022-08-19T08:09:07;96964.69;;;19.47;90.54
9281;BME280;4679;47.966;7.958;2022-08-19T08:11:13;96975.53;;;19.56;90.49
9281;BME280;4679;47.966;7.958;2022-08-19T08:13:15;96973.53;;;19.61;90.24
9281;BME280;4679;47.966;7.958;2022-08-19T08:15:17;96983.38;;;19.66;90.15
9281;BME280;4679;47.966;7.958;2022-08-19T08:17:20;96981.91;;;19.60;90.13
9281;BME280;4679;47.966;7.958;2022-08-19T08:19:24;96991.53;;;19.52;90.36
9281;BME280;4679;47.966;7.958;2022-08-19T08:21:26;96986.00;;;19.44;90.44
9281;BME280;4679;47.966;7.958;2022-08-19T08:23:29;96987.75;;;19.40;90.34
9281;BME280;4679;47.966;7.958;2022-08-19T08:25:30;96985.81;;;19.40;90.40
9281;BME280;4679;47.966;7.958;2022-08-19T08:27:35;96983.25;;;19.35;90.33
9281;BME280;4679;47.966;7.958;2022-08-19T08:29:39;96987.66;;;19.31;90.38
9281;BME280;4679;47.966;7.958;2022-08-19T08:31:43;96996.28;;;19.42;90.48
9281;BME280;4679;47.966;7.958;2022-08-19T08:33:46;96989.81;;;19.43;90.14
9281;BME280;4679;47.966;7.958;2022-08-19T08:35:48;96985.81;;;19.40;90.18
9281;BME280;4679;47.966;7.958;2022-08-19T08:37:51;96989.13;;;19.37;90.22
9281;BME280;4679;47.966;7.958;2022-08-19T08:39:55;96990.72;;;19.38;90.18
9281;BME280;4679;47.966;7.958;2022-08-19T08:42:07;96994.88;;;19.44;90.08
9281;BME280;4679;47.966;7.958;2022-08-19T08:44:14;96998.50;;;19.53;89.93
9281;BME280;4679;47.966;7.958;2022-08-19T08:46:22;97008.22;;;19.63;90.01
9281;BME280;4679;47.966;7.958;2022-08-19T08:48:35;97002.84;;;19.63;89.70
9281;BME280;4679;47.966;7.958;2022-08-19T08:50:41;97009.91;;;19.59;89.59
9281;BME280;4679;47.966;7.958;2022-08-19T08:52:46;97013.59;;;19.63;89.58
9281;BME280;4679;47.966;7.958;2022-08-19T08:54:50;97011.22;;;19.61;89.53
9281;BME280;4679;47.966;7.958;2022-08-19T08:56:54;97012.22;;;19.65;89.44
9281;BME280;4679;47.966;7.958;2022-08-19T08:58:58;97008.28;;;19.72;89.58
9281;BME280;4679;47.966;7.958;2022-08-19T09:01:02;97008.63;;;19.70;89.44
9281;BME280;4679;47.966;7.958;2022-08-19T09:03:06;97011.78;;;19.72;89.37
9281;BME280;4679;47.966;7.958;2022-08-19T09:05:11;97023.03;;;19.74;89.15
9281;BME280;4679;47.966;7.958;2022-08-19T09:07:25;97025.13;;;19.77;89.27
9281;BME280;4679;47.966;7.958;2022-08-19T09:09:34;97029.09;;;19.80;89.33
9281;BME280;4679;47.966;7.958;2022-08-19T09:11:47;97026.72;;;19.78;89.10
9281;BME280;4679;47.966;7.958;2022-08-19T09:14:01;97025.63;;;19.79;88.92
9281;BME280;4679;47.966;7.958;2022-08-19T09:16:06;97027.50;;;19.79;88.83
9281;BME280;4679;47.966;7.958;2022-08-19T09:18:09;97033.50;;;19.76;88.94
9281;BME280;4679;47.966;7.958;2022-08-19T09:20:17;97036.28;;;19.84;88.80
9281;BME280;4679;47.966;7.958;2022-08-19T09:22:19;97037.88;;;19.85;88.74
9281;BME280;4679;47.966;7.958;2022-08-19T09:24:22;97036.94;;;19.90;88.73
9281;BME280;4679;47.966;7.958;2022-08-19T09:26:24;97047.34;;;19.83;88.60
9281;BME280;4679;47.966;7.958;2022-08-19T09:28:26;97042.38;;;19.76;88.91
9281;BME280;4679;47.966;7.958;2022-08-19T09:30:34;97040.97;;;19.79;88.82
9281;BME280;4679;47.966;7.958;2022-08-19T09:32:36;97046.56;;;19.82;88.72
9281;BME280;4679;47.966;7.958;2022-08-19T09:34:39;97047.34;;;19.83;88.55
9281;BME280;4679;47.966;7.958;2022-08-19T09:36:41;97047.47;;;19.78;88.58
9281;BME280;4679;47.966;7.958;2022-08-19T09:38:44;97043.47;;;19.75;88.74
9281;BME280;4679;47.966;7.958;2022-08-19T09:40:46;97044.38;;;19.84;88.44
9281;BME280;4679;47.966;7.958;2022-08-19T09:42:47;97048.81;;;19.89;88.36
9281;BME280;4679;47.966;7.958;2022-08-19T09:44:49;97046.81;;;19.94;88.21
9281;BME280;4679;47.966;7.958;2022-08-19T09:46:52;97045.09;;;19.98;87.97
9281;BME280;4679;47.966;7.958;2022-08-19T09:48:56;97047.34;;;20.05;88.05
9281;BME280;4679;47.966;7.958;2022-08-19T09:51:03;97046.63;;;20.13;87.83
9281;BME280;4679;47.966;7.958;2022-08-19T09:53:05;97049.50;;;20.17;87.71
9281;BME280;4679;47.966;7.958;2022-08-19T09:55:09;97051.72;;;20.15;87.80
9281;BME280;4679;47.966;7.958;2022-08-19T09:57:11;97055.81;;;20.12;87.53
9281;BME280;4679;47.966;7.958;2022-08-19T09:59:13;97049.63;;;20.12;87.50
9281;BME280;4679;47.966;7.958;2022-08-19T10:01:16;97052.88;;;20.22;87.35
9281;BME280;4679;47.966;7.958;2022-08-19T10:03:20;97053.56;;;20.28;87.30
9281;BME280;4679;47.966;7.958;2022-08-19T10:05:22;97058.00;;;20.32;87.00
9281;BME280;4679;47.966;7.958;2022-08-19T10:07:41;97053.63;;;20.36;87.04
9281;BME280;4679;47.966;7.958;2022-08-19T10:09:43;97051.13;;;20.40;86.95
9281;BME280;4679;47.966;7.958;2022-08-19T10:11:45;97055.53;;;20.36;86.80
9281;BME280;4679;47.966;7.958;2022-08-19T10:13:48;97051.03;;;20.31;86.75
9281;BME280;4679;47.966;7.958;2022-08-19T10:15:51;97053.84;;;20.26;86.73
9281;BME280;4679;47.966;7.958;2022-08-19T10:17:53;97057.19;;;20.32;86.69
9281;BME280;4679;47.966;7.958;2022-08-19T10:19:56;97054.69;;;20.35;86.65
9281;BME280;4679;47.966;7.958;2022-08-19T10:21:57;97053.19;;;20.43;86.34
9281;BME280;4679;47.966;7.958;2022-08-19T10:24:01;97054.50;;;20.46;86.09
9281;BME280;4679;47.966;7.958;2022-08-19T10:26:04;97054.94;;;20.48;86.08
9281;BME280;4679;47.966;7.958;2022-08-19T10:28:07;97056.84;;;20.47;85.83
9281;BME280;4679;47.966;7.958;2022-08-19T10:30:10;97056.25;;;20.50;86.02
9281;BME280;4679;47.966;7.958;2022-08-19T10:32:11;97048.63;;;20.52;85.77
9281;BME280;4679;47.966;7.958;2022-08-19T10:34:13;97050.84;;;20.50;85.59
9281;BME280;4679;47.966;7.958;2022-08-19T10:36:20;97047.50;;;20.45;85.57
9281;BME280;4679;47.966;7.958;2022-08-19T10:38:22;97044.53;;;20.55;85.28
9281;BME280;4679;47.966;7.958;2022-08-19T10:40:25;97044.56;;;20.63;85.17
9281;BME280;4679;47.966;7.958;2022-08-19T10:42:27;97052.34;;;20.65;85.07
9281;BME280;4679;47.966;7.958;2022-08-19T10:44:32;97057.09;;;20.59;84.98
9281;BME280;4679;47.966;7.958;2022-08-19T10:46:38;97058.63;;;20.52;85.17
9281;BME280;4679;47.966;7.958;2022-08-19T10:48:42;97055.63;;;20.53;84.98
9281;BME280;4679;47.966;7.958;2022-08-19T10:50:44;97055.84;;;20.65;84.55
9281;BME280;4679;47.966;7.958;2022-08-19T10:53:06;97057.31;;;20.71;84.25
9281;BME280;4679;47.966;7.958;2022-08-19T10:55:09;97055.94;;;20.83;83.82
9281;BME280;4679;47.966;7.958;2022-08-19T10:57:30;97061.41;;;21.00;83.50
9281;BME280;4679;47.966;7.958;2022-08-19T10:59:31;97057.47;;;21.06;83.24
9281;BME280;4679;47.966;7.958;2022-08-19T11:01:34;97068.91;;;21.12;82.92
9281;BME280;4679;47.966;7.958;2022-08-19T11:03:36;97070.66;;;21.16;82.96
9281;BME280;4679;47.966;7.958;2022-08-19T11:05:38;97065.47;;;21.20;82.64
9281;BME280;4679;47.966;7.958;2022-08-19T11:07:40;97063.66;;;21.06;82.88
9281;BME280;4679;47.966;7.958;2022-08-19T11:09:44;97062.19;;;21.00;82.94
9281;BME280;4679;47.966;7.958;2022-08-19T11:11:46;97059.94;;;20.94;82.82
9281;BME280;4679;47.966;7.958;2022-08-19T11:13:48;97063.78;;;20.93;82.78
9281;BME280;4679;47.966;7.958;2022-08-19T11:15:58;97060.97;;;21.06;82.62
9281;BME280;4679;47.966;7.958;2022-08-19T11:18:00;97062.78;;;21.20;82.09
9281;BME280;4679;47.966;7.958;2022-08-19T11:20:03;97062.00;;;21.28;82.07
9281;BME280;4679;47.966;7.958;2022-08-19T11:22:07;97069.66;;;21.43;81.68
9281;BME280;4679;47.966;7.958;2022-08-19T11:24:12;97057.78;;;21.53;81.31
9281;BME280;4679;47.966;7.958;2022-08-19T11:26:17;97056.19;;;21.60;80.95
9281;BME280;4679;47.966;7.958;2022-08-19T11:28:19;97061.59;;;21.52;80.89
9281;BME280;4679;47.966;7.958;2022-08-19T11:30:20;97055.69;;;21.50;80.78
9281;BME280;4679;47.966;7.958;2022-08-19T11:32:22;97058.09;;;21.60;80.48
9281;BME280;4679;47.966;7.958;2022-08-19T11:34:26;97065.91;;;21.79;79.83
9281;BME280;4679;47.966;7.958;2022-08-19T11:36:29;97060.66;;;21.82;79.55
9281;BME280;4679;47.966;7.958;2022-08-19T11:38:31;97054.13;;;21.92;79.46
9281;BME280;4679;47.966;7.958;2022-08-19T11:40:33;97063.19;;;21.96;79.10
9281;BME280;4679;47.966;7.958;2022-08-19T11:42:36;97055.41;;;21.86;79.74
9281;BME280;4679;47.966;7.958;2022-08-19T11:44:56;97059.22;;;21.85;79.40
9281;BME280;4679;47.966;7.958;2022-08-19T11:46:58;97064.16;;;21.91;79.06
9281;BME280;4679;47.966;7.958;2022-08-19T11:49:01;97066.25;;;22.03;79.01
9281;BME280;4679;47.966;7.958;2022-08-19T11:53:06;97063.38;;;22.25;78.43
9281;BME280;4679;47.966;7.958;2022-08-19T11:55:08;97060.69;;;22.08;78.74
9281;BME280;4679;47.966;7.958;2022-08-19T11:57:10;97058.75;;;22.00;78.59
9281;BME280;4679;47.966;7.958;2022-08-19T11:59:13;97055.28;;;21.99;78.56
9281;BME280;4679;47.966;7.958;2022-08-19T12:01:17;97061.78;;;21.98;78.39
9281;BME280;4679;47.966;7.958;2022-08-19T12:03:19;97060.97;;;21.89;78.68
9281;BME280;4679;47.966;7.958;2022-08-19T12:05:20;97059.22;;;21.85;78.83
9281;BME280;4679;47.966;7.958;2022-08-19T12:07:22;97058.91;;;21.86;78.29
9281;BME280;4679;47.966;7.958;2022-08-19T12:09:25;97060.81;;;21.94;77.76
9281;BME280;4679;47.966;7.958;2022-08-19T12:11:27;97058.28;;;22.06;77.72
9281;BME280;4679;47.966;7.958;2022-08-19T12:13:29;97059.72;;;22.30;77.13
9281;BME280;4679;47.966;7.958;2022-08-19T12:15:36;97053.94;;;22.49;76.63
9281;BME280;4679;47.966;7.958;2022-08-19T12:17:40;97056.97;;;22.56;76.75
9281;BME280;4679;47.966;7.958;2022-08-19T12:19:43;97056.13;;;22.64;76.42
9281;BME280;4679;47.966;7.958;2022-08-19T12:21:44;97057.72;;;22.73;75.85
9281;BME280;4679;47.966;7.958;2022-08-19T12:23:46;97058.50;;;22.83;75.61
9281;BME280;4679;47.966;7.958;2022-08-19T12:25:49;97059.72;;;22.94;75.51
9281;BME280;4679;47.966;7.958;2022-08-19T12:27:51;97046.16;;;23.02;75.22
9281;BME280;4679;47.966;7.958;2022-08-19T12:29:53;97046.19;;;23.23;74.57
9281;BME280;4679;47.966;7.958;2022-08-19T12:31:57;97052.38;;;23.32;74.28
9281;BME280;4679;47.966;7.958;2022-08-19T12:34:02;97050.81;;;23.23;74.25
9281;BME280;4679;47.966;7.958;2022-08-19T12:36:07;97050.88;;;23.14;74.64
9281;BME280;4679;47.966;7.958;2022-08-19T12:38:09;97060.00;;;23.01;74.53
9281;BME280;4679;47.966;7.958;2022-08-19T12:40:12;97061.66;;;22.85;74.59
9281;BME280;4679;47.966;7.958;2022-08-19T12:42:14;97058.50;;;22.83;74.60
9281;BME280;4679;47.966;7.958;2022-08-19T12:44:16;97049.97;;;23.01;74.06
9281;BME280;4679;47.966;7.958;2022-08-19T12:46:19;97048.06;;;23.02;73.81
9281;BME280;4679;47.966;7.958;2022-08-19T12:48:22;97041.63;;;23.15;73.53
9281;BME280;4679;47.966;7.958;2022-08-19T12:50:24;97045.06;;;23.24;73.23
9281;BME280;4679;47.966;7.958;2022-08-19T12:52:26;97042.50;;;23.28;72.66
9281;BME280;4679;47.966;7.958;2022-08-19T12:54:28;97051.09;;;23.30;72.33
9281;BME280;4679;47.966;7.958;2022-08-19T12:56:30;97042.53;;;23.78;70.89
9281;BME280;4679;47.966;7.958;2022-08-19T12:58:33;97043.78;;;24.01;70.49
9281;BME280;4679;47.966;7.958;2022-08-19T13:00:35;97049.78;;;24.07;70.38
9281;BME280;4679;47.966;7.958;2022-08-19T13:02:38;97041.94;;;24.47;69.37
9281;BME280;4679;47.966;7.958;2022-08-19T13:04:42;97047.97;;;24.65;68.60
9281;BME280;4679;47.966;7.958;2022-08-19T13:06:44;97042.91;;;24.75;68.28
9281;BME280;4679;47.966;7.958;2022-08-19T13:08:46;97042.41;;;25.06;67.18
9281;BME280;4679;47.966;7.958;2022-08-19T13:10:47;97041.25;;;24.95;67.17
9281;BME280;4679;47.966;7.958;2022-08-19T13:12:51;97045.59;;;24.63;68.00
9281;BME280;4679;47.966;7.958;2022-08-19T13:14:54;97034.81;;;24.42;68.25
9281;BME280;4679;47.966;7.958;2022-08-19T13:16:56;97043.81;;;24.34;68.17
9281;BME280;4679;47.966;7.958;2022-08-19T13:18:58;97033.31;;;24.33;68.04
9281;BME280;4679;47.966;7.958;2022-08-19T13:21:05;97030.97;;;24.43;67.71
9281;BME280;4679;47.966;7.958;2022-08-19T13:23:08;97031.94;;;24.72;66.89
9281;BME280;4679;47.966;7.958;2022-08-19T13:25:11;97032.75;;;24.84;66.08
9281;BME280;4679;47.966;7.958;2022-08-19T13:27:14;97021.91;;;25.09;65.76
9281;BME280;4679;47.966;7.958;2022-08-19T13:29:16;97021.91;;;25.33;64.57
9281;BME280;4679;47.966;7.958;2022-08-19T13:31:40;97025.97;;;25.39;64.75
9281;BME280;4679;47.966;7.958;2022-08-19T13:34:00;97026.31;;;25.26;64.80
9281;BME280;4679;47.966;7.958;2022-08-19T13:36:02;97027.47;;;25.12;64.70
9281;BME280;4679;47.966;7.958;2022-08-19T13:38:09;97022.09;;;24.92;64.79
9281;BME280;4679;47.966;7.958;2022-08-19T13:40:14;97018.72;;;24.70;65.04
9281;BME280;4679;47.966;7.958;2022-08-19T13:42:18;97018.00;;;24.61;64.95
9281;BME280;4679;47.966;7.958;2022-08-19T13:44:20;97018.13;;;24.65;64.73
9281;BME280;4679;47.966;7.958;2022-08-19T13:46:22;97023.00;;;24.71;64.56
9281;BME280;4679;47.966;7.958;2022-08-19T13:48:24;97011.69;;;24.69;64.61
9281;BME280;4679;47.966;7.958;2022-08-19T13:50:29;97019.75;;;24.90;63.85
9281;BME280;4679;47.966;7.958;2022-08-19T13:52:31;97019.88;;;25.06;63.43
9281;BME280;4679;47.966;7.958;2022-08-19T13:54:34;97011.16;;;25.12;63.58
9281;BME280;4679;47.966;7.958;2022-08-19T13:56:40;97013.09;;;25.24;62.72
9281;BME280;4679;47.966;7.958;2022-08-19T13:58:42;97009.09;;;25.46;62.41
9281;BME280;4679;47.966;7.958;2022-08-19T14:00:45;97004.56;;;25.50;62.28
9281;BME280;4679;47.966;7.958;2022-08-19T14:02:51;97014.84;;;25.69;61.62
9281;BME280;4679;47.966;7.958;2022-08-19T14:04:53;97020.88;;;25.50;62.39
9281;BME280;4679;47.966;7.958;2022-08-19T14:06:55;97021.09;;;25.45;62.13
9281;BME280;4679;47.966;7.958;2022-08-19T14:08:57;97016.22;;;25.63;61.62
9281;BME280;4679;47.966;7.958;2022-08-19T14:11:00;97019.16;;;25.98;60.47
9281;BME280;4679;47.966;7.958;2022-08-19T14:13:03;97020.81;;;26.14;60.82
9281;BME280;4679;47.966;7.958;2022-08-19T14:15:07;97022.44;;;26.03;60.93
9281;BME280;4679;47.966;7.958;2022-08-19T14:17:09;97025.50;;;26.02;60.52
9281;BME280;4679;47.966;7.958;2022-08-19T14:19:11;97022.50;;;26.19;59.99
9281;BME280;4679;47.966;7.958;2022-08-19T14:21:17;97021.63;;;26.43;59.89
9281;BME280;4679;47.966;7.958;2022-08-19T14:23:20;97027.13;;;26.46;59.29
9281;BME280;4679;47.966;7.958;2022-08-19T14:25:24;97029.28;;;26.53;59.10
9281;BME280;4679;47.966;7.958;2022-08-19T14:27:27;97029.69;;;26.39;59.93
9281;BME280;4679;47.966;7.958;2022-08-19T14:29:29;97032.59;;;26.46;59.19
9281;BME280;4679;47.966;7.958;2022-08-19T14:31:31;97022.34;;;26.55;58.94
9281;BME280;4679;47.966;7.958;2022-08-19T14:33:33;97039.34;;;26.37;59.86
9281;BME280;4679;47.966;7.958;2022-08-19T14:35:35;97029.03;;;26.02;60.20
9281;BME280;4679;47.966;7.958;2022-08-19T14:37:37;97023.13;;;25.60;61.09
9281;BME280;4679;47.966;7.958;2022-08-19T14:39:39;97024.53;;;25.30;61.44
9281;BME280;4679;47.966;7.958;2022-08-19T14:41:41;97026.56;;;25.20;61.77
9281;BME280;4679;47.966;7.958;2022-08-19T14:43:45;97026.34;;;25.13;61.82
9281;BME280;4679;47.966;7.958;2022-08-19T14:45:47;97032.56;;;25.02;61.63
9281;BME280;4679;47.966;7.958;2022-08-19T14:47:49;97028.31;;;24.92;61.75
9281;BME280;4679;47.966;7.958;2022-08-19T14:49:51;97032.16;;;24.79;62.02
9281;BME280;4679;47.966;7.958;2022-08-19T14:51:52;97037.38;;;24.72;62.21
9281;BME280;4679;47.966;7.958;2022-08-19T14:53:55;97034.97;;;24.58;62.39
9281;BME280;4679;47.966;7.958;2022-08-19T14:55:56;97038.22;;;24.51;62.54
9281;BME280;4679;47.966;7.958;2022-08-19T14:57:59;97043.28;;;24.41;62.64
9281;BME280;4679;47.966;7.958;2022-08-19T15:00:04;97035.00;;;24.25;62.90
9281;BME280;4679;47.966;7.958;2022-08-19T15:02:06;97039.63;;;24.04;63.08
9281;BME280;4679;47.966;7.958;2022-08-19T15:04:07;97038.91;;;23.95;63.32
9281;BME280;4679;47.966;7.958;2022-08-19T15:06:09;97044.84;;;23.88;63.36
9281;BME280;4679;47.966;7.958;2022-08-19T15:08:11;97038.84;;;23.82;63.51
9281;BME280;4679;47.966;7.958;2022-08-19T15:10:13;97046.84;;;23.79;63.37
9281;BME280;4679;47.966;7.958;2022-08-19T15:12:15;97041.00;;;23.68;63.61
9281;BME280;4679;47.966;7.958;2022-08-19T15:14:17;97053.03;;;23.59;63.82
9281;BME280;4679;47.966;7.958;2022-08-19T15:16:23;97046.34;;;23.56;63.56
9281;BME280;4679;47.966;7.958;2022-08-19T15:18:26;97051.97;;;23.51;63.64
9281;BME280;4679;47.966;7.958;2022-08-19T15:20:28;97056.59;;;23.42;63.57
9281;BME280;4679;47.966;7.958;2022-08-19T15:22:30;97054.44;;;23.35;63.92
9281;BME280;4679;47.966;7.958;2022-08-19T15:24:32;97060.97;;;23.34;63.67
9281;BME280;4679;47.966;7.958;2022-08-19T15:26:36;97054.09;;;23.37;63.59
9281;BME280;4679;47.966;7.958;2022-08-19T15:28:38;97055.56;;;23.34;63.56
9281;BME280;4679;47.966;7.958;2022-08-19T15:30:40;97056.53;;;23.30;63.58
9281;BME280;4679;47.966;7.958;2022-08-19T15:32:45;97051.81;;;23.18;63.80
9281;BME280;4679;47.966;7.958;2022-08-19T15:34:46;97046.41;;;23.18;63.57
9281;BME280;4679;47.966;7.958;2022-08-19T15:36:49;97050.50;;;23.24;63.69
9281;BME280;4679;47.966;7.958;2022-08-19T15:38:51;97045.22;;;23.28;63.41
9281;BME280;4679;47.966;7.958;2022-08-19T15:40:53;97045.88;;;23.25;63.56
9281;BME280;4679;47.966;7.958;2022-08-19T15:43:15;97042.09;;;23.17;63.41
9281;BME280;4679;47.966;7.958;2022-08-19T15:45:19;97044.16;;;23.20;63.34
9281;BME280;4679;47.966;7.958;2022-08-19T15:47:22;97047.94;;;23.28;63.47
9281;BME280;4679;47.966;7.958;2022-08-19T15:49:25;97045.38;;;23.31;63.30
9281;BME280;4679;47.966;7.958;2022-08-19T15:51:29;97056.34;;;23.35;63.08
9281;BME280;4679;47.966;7.958;2022-08-19T15:53:31;97047.75;;;23.33;63.34
9281;BME280;4679;47.966;7.958;2022-08-19T15:55:36;97050.63;;;23.28;63.78
9281;BME280;4679;47.966;7.958;2022-08-19T15:57:38;97055.09;;;23.32;63.19
9281;BME280;4679;47.966;7.958;2022-08-19T16:00:09;97048.56;;;23.33;63.45
9281;BME280;4679;47.966;7.958;2022-08-19T16:02:28;97054.28;;;23.32;63.98
9281;BME280;4679;47.966;7.958;2022-08-19T16:04:54;97044.28;;;23.24;63.48
9281;BME280;4679;47.966;7.958;2022-08-19T16:07:13;97050.81;;;23.23;63.65
9281;BME280;4679;47.966;7.958;2022-08-19T16:09:16;97047.00;;;23.24;63.50
9281;BME280;4679;47.966;7.958;2022-08-19T16:11:18;97047.00;;;23.24;63.64
9281;BME280;4679;47.966;7.958;2022-08-19T16:13:20;97048.09;;;23.23;63.44
9281;BME280;4679;47.966;7.958;2022-08-19T16:15:24;97046.81;;;23.29;63.33
9281;BME280;4679;47.966;7.958;2022-08-19T16:17:27;97049.53;;;23.29;63.67
9281;BME280;4679;47.966;7.958;2022-08-19T16:19:28;97047.31;;;23.22;63.65
9281;BME280;4679;47.966;7.958;2022-08-19T16:21:33;97045.88;;;23.25;63.43
9281;BME280;4679;47.966;7.958;2022-08-19T16:23:36;97039.34;;;23.26;63.50
9281;BME280;4679;47.966;7.958;2022-08-19T16:25:38;97046.03;;;23.28;63.31
9281;BME280;4679;47.966;7.958;2022-08-19T16:27:40;97048.56;;;23.33;63.39
9281;BME280;4679;47.966;7.958;2022-08-19T16:29:42;97046.63;;;23.34;63.25
9281;BME280;4679;47.966;7.958;2022-08-19T16:31:45;97047.75;;;23.33;63.42
9281;BME280;4679;47.966;7.958;2022-08-19T16:33:47;97053.31;;;23.36;63.33
9281;BME280;4679;47.966;7.958;2022-08-19T16:35:48;97050.94;;;23.35;63.49
9281;BME280;4679;47.966;7.958;2022-08-19T16:37:52;97037.56;;;23.30;63.28
9281;BME280;4679;47.966;7.958;2022-08-19T16:39:53;97047.28;;;23.31;63.50
9281;BME280;4679;47.966;7.958;2022-08-19T16:41:55;97042.00;;;23.34;63.30
9281;BME280;4679;47.966;7.958;2022-08-19T16:43:57;97044.41;;;23.36;63.42
9281;BME280;4679;47.966;7.958;2022-08-19T16:45:59;97045.97;;;23.37;63.68
9281;BME280;4679;47.966;7.958;2022-08-19T16:48:02;97044.84;;;23.38;63.21
9281;BME280;4679;47.966;7.958;2022-08-19T16:50:04;97045.63;;;23.38;63.49
9281;BME280;4679;47.966;7.958;2022-08-19T16:52:07;97046.97;;;23.32;63.52
9281;BME280;4679;47.966;7.958;2022-08-19T16:54:12;97051.44;;;23.28;63.76